createdAt,value
2022-11-29T00:01:06.598Z,3.03
2022-11-29T00:03:34.609Z,3.00
2022-11-29T00:06:08.178Z,3.03
2022-11-29T00:08:36.071Z,3.02
2022-11-29T00:11:07.241Z,2.99
2022-11-29T00:13:33.712Z,2.98
2022-11-29T00:16:12.400Z,3.06
2022-11-29T00:18:38.757Z,3.12
2022-11-29T00:21:08.706Z,3.11
2022-11-29T00:23:36.227Z,3.10
2022-11-29T00:26:07.138Z,3.12
2022-11-29T00:28:34.876Z,3.11
2022-11-29T00:31:12.413Z,3.08
2022-11-29T00:33:38.768Z,3.07
2022-11-29T00:36:05.326Z,3.07
2022-11-29T00:38:31.979Z,3.12
2022-11-29T00:40:58.329Z,3.19
2022-11-29T00:43:24.643Z,3.18
2022-11-29T00:45:51.471Z,3.15
2022-11-29T00:48:17.850Z,3.16
2022-11-29T00:50:44.222Z,3.18
2022-11-29T00:53:11.046Z,3.22
2022-11-29T00:55:37.367Z,3.11
2022-11-29T00:58:03.831Z,3.11
2022-11-29T01:00:30.514Z,3.05
2022-11-29T01:02:56.822Z,3.11
2022-11-29T01:05:23.250Z,2.93
2022-11-29T01:07:50.164Z,2.90
2022-11-29T01:10:16.941Z,2.96
2022-11-29T01:12:43.267Z,3.03
2022-11-29T01:15:10.909Z,3.01
2022-11-29T01:17:38.787Z,3.02
2022-11-29T01:20:07.642Z,3.02
2022-11-29T01:22:35.405Z,3.02
2022-11-29T01:25:01.822Z,3.10
2022-11-29T01:27:29.362Z,3.09
2022-11-29T01:29:56.306Z,3.10
2022-11-29T01:32:22.678Z,3.15
2022-11-29T01:34:49.051Z,3.13
2022-11-29T01:37:15.889Z,3.17
2022-11-29T01:39:42.545Z,3.19
2022-11-29T01:42:12.720Z,3.17
2022-11-29T01:44:39.537Z,3.19
2022-11-29T01:47:05.885Z,3.17
2022-11-29T01:49:37.428Z,3.17
2022-11-29T01:52:11.793Z,3.19
2022-11-29T01:54:47.127Z,3.16
2022-11-29T01:57:14.115Z,3.18
2022-11-29T01:59:48.053Z,3.21
2022-11-29T02:02:22.598Z,3.26
2022-11-29T02:04:49.817Z,3.25
2022-11-29T02:07:16.978Z,3.18
2022-11-29T02:09:43.712Z,3.12
2022-11-29T02:12:19.149Z,3.09
2022-11-29T02:14:58.077Z,3.09
2022-11-29T02:17:33.432Z,3.14
2022-11-29T02:20:28.534Z,3.20
2022-11-29T02:23:19.592Z,3.18
2022-11-29T02:26:02.622Z,3.27
2022-11-29T02:28:49.282Z,3.23
2022-11-29T02:31:54.549Z,3.20
2022-11-29T02:34:57.907Z,3.21
2022-11-29T02:37:58.996Z,3.30
2022-11-29T02:40:51.466Z,3.22
2022-11-29T02:43:51.408Z,3.13
2022-11-29T02:46:59.497Z,3.11
2022-11-29T02:49:44.142Z,3.13
2022-11-29T02:52:25.693Z,3.11
2022-11-29T02:55:04.436Z,3.11
2022-11-29T02:57:43.633Z,3.14
2022-11-29T03:00:15.220Z,3.18
2022-11-29T03:03:02.238Z,3.20
2022-11-29T03:05:37.502Z,3.23
2022-11-29T03:08:31.210Z,3.21
2022-11-29T03:11:07.325Z,3.27
2022-11-29T03:13:53.099Z,3.27
2022-11-29T03:16:44.902Z,3.19
2022-11-29T03:19:30.046Z,3.09
2022-11-29T03:22:04.334Z,3.13
2022-11-29T03:24:51.074Z,3.21
2022-11-29T03:27:28.246Z,3.17
2022-11-29T03:30:02.684Z,3.14
2022-11-29T03:32:39.061Z,3.18
2022-11-29T03:35:30.108Z,3.21
2022-11-29T03:38:24.046Z,3.13
2022-11-29T03:40:57.638Z,3.11
2022-11-29T03:43:35.001Z,3.14
2022-11-29T03:46:10.595Z,3.11
2022-11-29T03:48:44.676Z,3.11
2022-11-29T03:51:21.707Z,3.22
2022-11-29T03:53:57.698Z,3.24
2022-11-29T03:56:35.437Z,3.23
2022-11-29T03:59:10.628Z,3.25
2022-11-29T04:01:55.504Z,3.27
2022-11-29T04:04:45.805Z,3.25
2022-11-29T04:07:24.667Z,3.28
2022-11-29T04:10:20.944Z,3.30
2022-11-29T04:13:25.555Z,3.29
2022-11-29T04:16:10.733Z,3.33
2022-11-29T04:19:11.335Z,3.34
2022-11-29T04:21:43.629Z,3.34
2022-11-29T04:24:29.118Z,3.31
2022-11-29T04:27:19.062Z,3.41
2022-11-29T04:29:51.930Z,3.36
2022-11-29T04:32:25.306Z,3.33
2022-11-29T04:35:16.945Z,3.35
2022-11-29T04:38:17.775Z,3.37
2022-11-29T04:40:56.694Z,3.34
2022-11-29T04:43:32.181Z,3.34
2022-11-29T04:46:11.478Z,3.37
2022-11-29T04:48:59.915Z,3.40
2022-11-29T04:51:43.758Z,3.39
2022-11-29T04:54:39.915Z,3.47
2022-11-29T04:57:18.726Z,3.55
2022-11-29T04:59:53.694Z,3.48
2022-11-29T05:02:28.871Z,3.39
2022-11-29T05:05:18.499Z,3.43
2022-11-29T05:07:52.749Z,3.42
2022-11-29T05:10:39.544Z,3.44
2022-11-29T05:13:37.881Z,3.41
2022-11-29T05:16:15.781Z,3.38
2022-11-29T05:18:57.313Z,3.34
2022-11-29T05:21:47.459Z,3.40
2022-11-29T05:24:51.364Z,3.42
2022-11-29T05:27:46.226Z,3.35
2022-11-29T05:30:19.466Z,3.43
2022-11-29T05:33:05.548Z,3.42
2022-11-29T05:35:52.959Z,3.36
2022-11-29T05:38:50.231Z,3.40
2022-11-29T05:41:24.071Z,3.39
2022-11-29T05:44:07.901Z,3.34
2022-11-29T05:46:48.450Z,3.30
2022-11-29T05:49:34.057Z,3.38
2022-11-29T05:52:14.056Z,3.34
2022-11-29T05:54:47.076Z,3.31
2022-11-29T05:57:47.985Z,3.38
2022-11-29T06:00:17.190Z,3.39
2022-11-29T06:03:06.482Z,3.38
2022-11-29T06:05:51.647Z,3.45
2022-11-29T06:08:46.762Z,3.54
2022-11-29T06:11:28.090Z,3.54
2022-11-29T06:14:36.497Z,3.65
2022-11-29T06:17:25.745Z,3.74
2022-11-29T06:20:17.150Z,3.73
2022-11-29T06:22:57.962Z,3.75
2022-11-29T06:25:34.207Z,3.77
2022-11-29T06:28:25.281Z,3.65
2022-11-29T06:31:03.632Z,3.63
2022-11-29T06:33:58.410Z,3.73
2022-11-29T06:36:48.885Z,3.76
2022-11-29T06:39:15.422Z,3.78
2022-11-29T06:41:42.099Z,3.77
2022-11-29T06:44:10.057Z,3.83
2022-11-29T06:46:49.139Z,3.88
2022-11-29T06:49:25.127Z,3.80
2022-11-29T06:52:13.584Z,3.75
2022-11-29T06:55:11.109Z,3.83
2022-11-29T06:58:06.398Z,3.76
2022-11-29T07:01:02.737Z,3.93
2022-11-29T07:03:54.799Z,3.87
2022-11-29T07:06:25.299Z,3.91
2022-11-29T07:08:56.055Z,3.94
2022-11-29T07:11:22.718Z,3.82
2022-11-29T07:13:50.020Z,3.86
2022-11-29T07:16:25.650Z,3.95
2022-11-29T07:19:18.998Z,3.97
2022-11-29T07:21:58.530Z,4.03
2022-11-29T07:24:35.294Z,4.09
2022-11-29T07:27:20.288Z,3.99
2022-11-29T07:29:56.343Z,3.98
2022-11-29T07:32:38.257Z,4.00
2022-11-29T07:35:12.370Z,4.11
2022-11-29T07:38:01.461Z,4.01
2022-11-29T07:40:52.218Z,3.94
2022-11-29T07:43:48.858Z,3.89
2022-11-29T07:46:15.661Z,3.99
2022-11-29T07:48:42.302Z,4.12
2022-11-29T07:51:09.181Z,4.12
2022-11-29T07:53:41.078Z,4.12
2022-11-29T07:56:09.365Z,4.09
2022-11-29T07:58:36.323Z,4.10
2022-11-29T08:01:03.762Z,4.10
2022-11-29T08:03:31.249Z,4.22
2022-11-29T08:05:57.627Z,4.30
2022-11-29T08:08:23.924Z,4.33
2022-11-29T08:10:50.641Z,4.32
2022-11-29T08:13:20.228Z,4.35
2022-11-29T08:15:47.990Z,4.37
2022-11-29T08:18:16.037Z,4.38
2022-11-29T08:20:42.941Z,4.47
2022-11-29T08:23:11.134Z,4.58
2022-11-29T08:25:37.946Z,4.56
2022-11-29T08:28:05.339Z,4.61
2022-11-29T08:30:31.759Z,4.72
2022-11-29T08:32:58.597Z,4.71
2022-11-29T08:35:25.190Z,4.87
2022-11-29T08:37:51.940Z,4.83
2022-11-29T08:40:18.365Z,4.88
2022-11-29T08:42:44.724Z,4.87
2022-11-29T08:45:12.169Z,5.00
2022-11-29T08:47:39.096Z,5.09
2022-11-29T08:50:12.540Z,5.13
2022-11-29T08:53:00.397Z,5.21
2022-11-29T08:55:31.180Z,5.26
2022-11-29T08:58:03.509Z,5.22
2022-11-29T09:00:30.458Z,5.32
2022-11-29T09:03:17.218Z,5.43
2022-11-29T09:05:43.815Z,5.47
2022-11-29T09:08:10.239Z,5.43
2022-11-29T09:10:38.765Z,5.45
2022-11-29T09:13:05.482Z,5.63
2022-11-29T09:15:31.806Z,5.51
2022-11-29T09:17:58.577Z,5.63
2022-11-29T09:20:25.834Z,5.88
2022-11-29T09:22:52.429Z,5.81
2022-11-29T09:25:18.773Z,5.75
2022-11-29T09:27:45.597Z,5.99
2022-11-29T09:30:12.266Z,5.98
2022-11-29T09:32:38.597Z,5.92
2022-11-29T09:35:05.328Z,5.82
2022-11-29T09:37:31.639Z,5.84
2022-11-29T09:39:57.960Z,5.94
2022-11-29T09:42:42.309Z,6.03
2022-11-29T09:45:19.506Z,5.99
2022-11-29T09:48:09.165Z,6.09
2022-11-29T09:50:46.223Z,6.08
2022-11-29T09:53:56.131Z,5.93
2022-11-29T09:56:30.614Z,5.89
2022-11-29T09:59:02.154Z,5.89
2022-11-29T10:01:34.098Z,6.06
2022-11-29T10:04:05.063Z,6.25
2022-11-29T10:06:38.729Z,6.32
2022-11-29T10:09:33.732Z,6.25
2022-11-29T10:12:07.285Z,6.28
2022-11-29T10:14:46.546Z,6.36
2022-11-29T10:17:23.734Z,6.32
2022-11-29T10:19:57.585Z,6.18
2022-11-29T10:22:44.854Z,6.27
2022-11-29T10:25:21.945Z,6.29
2022-11-29T10:27:48.309Z,6.26
2022-11-29T10:30:16.144Z,6.38
2022-11-29T10:32:45.780Z,6.55
2022-11-29T10:35:17.610Z,6.57
2022-11-29T10:38:01.404Z,6.73
2022-11-29T10:40:35.998Z,6.86
2022-11-29T10:43:02.974Z,6.90
2022-11-29T10:45:39.194Z,6.76
2022-11-29T10:48:15.709Z,6.84
2022-11-29T10:50:52.010Z,6.81
2022-11-29T10:53:26.829Z,7.02
2022-11-29T10:55:53.892Z,6.81
2022-11-29T10:58:28.487Z,6.64
2022-11-29T11:01:02.697Z,6.56
2022-11-29T11:03:55.322Z,6.87
2022-11-29T11:06:28.111Z,6.73
2022-11-29T11:08:57.488Z,6.58
2022-11-29T11:11:33.894Z,6.73
2022-11-29T11:14:02.927Z,6.66
2022-11-29T11:16:34.185Z,6.87
2022-11-29T11:19:33.837Z,6.94
2022-11-29T11:22:02.201Z,6.82
2022-11-29T11:24:36.974Z,6.86
2022-11-29T11:27:03.794Z,6.89
2022-11-29T11:29:44.035Z,6.96
2022-11-29T11:32:18.383Z,6.97
2022-11-29T11:34:56.809Z,7.00
2022-11-29T11:37:26.203Z,7.00
2022-11-29T11:39:57.430Z,7.07
2022-11-29T11:42:37.996Z,7.14
2022-11-29T11:45:05.220Z,7.03
2022-11-29T11:47:35.526Z,7.06
2022-11-29T11:50:04.728Z,7.07
2022-11-29T11:52:39.862Z,6.99
2022-11-29T11:55:21.960Z,6.73
2022-11-29T11:58:04.656Z,6.80
2022-11-29T12:01:16.461Z,6.77
2022-11-29T12:03:39.721Z,6.83
2022-11-29T12:06:06.056Z,6.74
2022-11-29T12:08:34.025Z,6.59
2022-11-29T12:11:07.373Z,6.64
2022-11-29T12:13:39.723Z,6.93
2022-11-29T12:16:15.515Z,6.83
2022-11-29T12:18:51.361Z,6.73
2022-11-29T12:21:26.737Z,6.52
2022-11-29T12:23:52.990Z,6.60
2022-11-29T12:26:58.406Z,6.60
2022-11-29T12:29:27.622Z,6.66
2022-11-29T12:32:15.618Z,6.57
2022-11-29T12:34:45.709Z,6.47
2022-11-29T12:37:48.337Z,6.74
2022-11-29T12:40:28.810Z,6.64
2022-11-29T12:43:46.507Z,6.85
2022-11-29T12:46:16.736Z,6.55
2022-11-29T12:48:57.305Z,6.71
2022-11-29T12:51:48.837Z,6.98
2022-11-29T12:54:39.841Z,7.03
2022-11-29T12:57:38.894Z,7.01
2022-11-29T13:00:14.081Z,6.91
2022-11-29T13:03:02.082Z,6.98
2022-11-29T13:05:43.947Z,7.03
2022-11-29T13:08:22.284Z,6.98
2022-11-29T13:11:19.755Z,6.89
2022-11-29T13:13:51.974Z,6.81
2022-11-29T13:16:37.454Z,6.78
2022-11-29T13:19:33.631Z,6.67
2022-11-29T13:22:02.905Z,6.57
2022-11-29T13:24:42.554Z,6.60
2022-11-29T13:27:25.326Z,6.69
2022-11-29T13:29:52.870Z,6.39
2022-11-29T13:32:31.932Z,6.22
2022-11-29T13:35:21.101Z,6.31
2022-11-29T13:38:26.936Z,6.24
2022-11-29T13:41:11.352Z,6.38
2022-11-29T13:44:19.567Z,6.34
2022-11-29T13:47:05.444Z,6.16
2022-11-29T13:49:53.558Z,6.23
2022-11-29T13:52:43.072Z,6.40
2022-11-29T13:55:31.456Z,6.39
2022-11-29T13:58:19.034Z,6.26
2022-11-29T14:00:45.513Z,6.41
2022-11-29T14:03:24.013Z,6.36
2022-11-29T14:06:03.459Z,5.96
2022-11-29T14:09:16.649Z,6.11
2022-11-29T14:11:36.501Z,6.09
2022-11-29T14:14:05.497Z,6.07
2022-11-29T14:16:32.086Z,6.12
2022-11-29T14:19:11.524Z,6.02
2022-11-29T14:22:17.297Z,5.94
2022-11-29T14:24:56.526Z,5.90
2022-11-29T14:27:23.261Z,5.87
2022-11-29T14:29:49.515Z,5.99
2022-11-29T14:32:25.446Z,5.99
2022-11-29T14:35:11.240Z,5.95
2022-11-29T14:38:00.084Z,5.89
2022-11-29T14:40:41.015Z,5.90
2022-11-29T14:43:32.205Z,6.03
2022-11-29T14:46:27.752Z,5.92
2022-11-29T14:48:57.328Z,5.86
2022-11-29T14:51:28.463Z,5.95
2022-11-29T14:54:19.439Z,5.90
2022-11-29T14:56:47.236Z,5.85
2022-11-29T14:59:45.807Z,5.85
2022-11-29T15:02:32.316Z,5.94
2022-11-29T15:05:20.592Z,6.03
2022-11-29T15:08:13.722Z,5.92
2022-11-29T15:10:44.777Z,5.83
2022-11-29T15:13:15.683Z,5.87
2022-11-29T15:16:13.959Z,5.71
2022-11-29T15:19:12.282Z,5.86
2022-11-29T15:21:54.725Z,5.85
2022-11-29T15:24:28.048Z,5.88
2022-11-29T15:27:00.465Z,5.80
2022-11-29T15:29:28.705Z,5.71
2022-11-29T15:31:57.836Z,5.78
2022-11-29T15:34:40.634Z,5.84
2022-11-29T15:37:12.566Z,5.84
2022-11-29T15:39:40.026Z,5.75
2022-11-29T15:42:14.700Z,5.58
2022-11-29T15:44:48.607Z,5.73
2022-11-29T15:47:27.026Z,5.70
2022-11-29T15:49:54.248Z,5.68
2022-11-29T15:52:36.043Z,5.56
2022-11-29T15:55:10.061Z,5.56
2022-11-29T15:57:46.393Z,5.60
2022-11-29T16:00:20.096Z,5.71
2022-11-29T16:02:56.726Z,5.62
2022-11-29T16:05:26.593Z,5.54
2022-11-29T16:07:57.269Z,5.53
2022-11-29T16:10:43.833Z,5.51
2022-11-29T16:13:25.367Z,5.40
2022-11-29T16:16:21.176Z,5.33
2022-11-29T16:18:49.870Z,5.35
2022-11-29T16:21:30.098Z,5.25
2022-11-29T16:23:57.384Z,5.28
2022-11-29T16:26:32.958Z,5.41
2022-11-29T16:29:00.397Z,5.42
2022-11-29T16:31:35.949Z,5.33
2022-11-29T16:34:34.736Z,5.31
2022-11-29T16:37:06.516Z,5.41
2022-11-29T16:39:38.834Z,5.33
2022-11-29T16:42:28.760Z,5.30
2022-11-29T16:45:02.236Z,5.43
2022-11-29T16:47:30.634Z,5.21
2022-11-29T16:50:03.331Z,5.14
2022-11-29T16:52:34.155Z,5.31
2022-11-29T16:55:00.797Z,5.22
2022-11-29T16:57:29.021Z,5.16
2022-11-29T16:59:55.338Z,5.05
2022-11-29T17:02:21.751Z,4.97
2022-11-29T17:04:48.830Z,4.90
2022-11-29T17:07:22.597Z,4.96
2022-11-29T17:09:50.642Z,5.01
2022-11-29T17:12:17.273Z,4.94
2022-11-29T17:14:43.876Z,4.94
2022-11-29T17:17:18.492Z,4.94
2022-11-29T17:19:45.282Z,5.04
2022-11-29T17:22:12.351Z,5.05
2022-11-29T17:24:43.412Z,5.11
2022-11-29T17:27:12.950Z,4.93
2022-11-29T17:29:39.653Z,4.86
2022-11-29T17:32:06.485Z,4.86
2022-11-29T17:34:33.590Z,4.87
2022-11-29T17:36:59.909Z,4.88
2022-11-29T17:39:26.627Z,4.90
2022-11-29T17:41:52.961Z,4.94
2022-11-29T17:44:19.297Z,4.94
2022-11-29T17:46:46.066Z,4.89
2022-11-29T17:49:12.454Z,4.88
2022-11-29T17:51:51.670Z,4.94
2022-11-29T17:54:18.917Z,4.90
2022-11-29T17:56:45.637Z,4.86
2022-11-29T17:59:12.043Z,4.80
2022-11-29T18:01:38.457Z,4.84
2022-11-29T18:04:07.268Z,4.81
2022-11-29T18:06:38.177Z,4.76
2022-11-29T18:09:07.865Z,4.67
2022-11-29T18:11:47.107Z,4.76
2022-11-29T18:14:18.310Z,4.74
2022-11-29T18:16:45.315Z,4.62
2022-11-29T18:19:14.651Z,4.58
2022-11-29T18:21:41.641Z,4.57
2022-11-29T18:24:08.413Z,4.55
2022-11-29T18:26:36.421Z,4.58
2022-11-29T18:29:04.210Z,4.62
2022-11-29T18:31:33.433Z,4.65
2022-11-29T18:34:02.283Z,4.68
2022-11-29T18:36:34.494Z,4.70
2022-11-29T18:39:03.993Z,4.79
2022-11-29T18:41:31.097Z,5.00
2022-11-29T18:44:06.312Z,4.93
2022-11-29T18:46:35.438Z,4.90
2022-11-29T18:49:03.833Z,4.91
2022-11-29T18:51:31.794Z,4.99
2022-11-29T18:53:58.747Z,4.94
2022-11-29T18:56:28.058Z,4.93
2022-11-29T18:58:58.413Z,4.88
2022-11-29T19:01:27.895Z,4.72
2022-11-29T19:03:57.195Z,4.93
2022-11-29T19:06:39.279Z,4.91
2022-11-29T19:09:10.859Z,4.97
2022-11-29T19:11:37.267Z,4.98
2022-11-29T19:14:07.857Z,4.82
2022-11-29T19:16:34.870Z,4.82
2022-11-29T19:19:01.908Z,4.71
2022-11-29T19:21:35.104Z,4.88
2022-11-29T19:24:04.117Z,4.93
2022-11-29T19:26:31.860Z,4.83
2022-11-29T19:29:00.796Z,4.75
2022-11-29T19:31:28.296Z,4.77
2022-11-29T19:33:55.341Z,4.73
2022-11-29T19:36:27.301Z,4.76
2022-11-29T19:38:54.558Z,4.86
2022-11-29T19:41:27.201Z,4.86
2022-11-29T19:43:56.484Z,4.70
2022-11-29T19:46:25.860Z,4.74
2022-11-29T19:48:54.149Z,4.67
2022-11-29T19:51:21.861Z,4.78
2022-11-29T19:53:51.138Z,4.74
2022-11-29T19:56:17.697Z,4.68
2022-11-29T19:58:45.030Z,4.59
2022-11-29T20:01:14.619Z,4.61
2022-11-29T20:03:41.721Z,4.61
2022-11-29T20:06:10.117Z,4.37
2022-11-29T20:08:37.117Z,4.36
2022-11-29T20:11:14.417Z,4.36
2022-11-29T20:13:42.748Z,4.33
2022-11-29T20:16:15.748Z,4.28
2022-11-29T20:18:50.212Z,4.35
2022-11-29T20:21:20.695Z,4.29
2022-11-29T20:23:47.203Z,4.26
2022-11-29T20:26:18.836Z,4.40
2022-11-29T20:28:47.299Z,4.47
2022-11-29T20:31:16.535Z,4.45
2022-11-29T20:33:44.654Z,4.37
2022-11-29T20:36:36.623Z,4.49
2022-11-29T20:39:05.833Z,4.44
2022-11-29T20:41:58.596Z,4.37
2022-11-29T20:44:38.306Z,4.44
2022-11-29T20:47:16.446Z,4.49
2022-11-29T20:49:43.011Z,4.49
2022-11-29T20:52:31.806Z,4.49
2022-11-29T20:54:58.116Z,4.57
2022-11-29T20:57:24.433Z,4.60
2022-11-29T20:59:51.142Z,4.52
2022-11-29T21:02:17.534Z,4.49
2022-11-29T21:04:44.129Z,4.30
2022-11-29T21:07:11.064Z,4.38
2022-11-29T21:09:37.932Z,4.36
2022-11-29T21:12:04.642Z,4.36
2022-11-29T21:14:31.194Z,4.30
2022-11-29T21:16:58.219Z,4.36
2022-11-29T21:19:25.829Z,4.45
2022-11-29T21:22:14.447Z,4.38
2022-11-29T21:24:40.988Z,4.34
2022-11-29T21:27:12.603Z,4.25
2022-11-29T21:29:39.602Z,4.23
2022-11-29T21:32:06.649Z,4.36
2022-11-29T21:34:33.944Z,4.19
2022-11-29T21:37:00.359Z,4.11
2022-11-29T21:39:33.442Z,4.36
2022-11-29T21:41:59.842Z,4.24
2022-11-29T21:44:26.765Z,4.19
2022-11-29T21:46:53.135Z,4.27
2022-11-29T21:49:22.727Z,4.28
2022-11-29T21:51:49.912Z,4.16
2022-11-29T21:54:16.802Z,4.22
2022-11-29T21:56:48.209Z,4.32
2022-11-29T21:59:16.692Z,4.29
2022-11-29T22:01:47.207Z,4.21
2022-11-29T22:04:13.997Z,4.12
2022-11-29T22:06:42.296Z,4.12
2022-11-29T22:09:09.163Z,4.13
2022-11-29T22:11:42.357Z,4.08
2022-11-29T22:14:14.373Z,4.08
2022-11-29T22:16:45.121Z,4.09
2022-11-29T22:19:12.690Z,4.11
2022-11-29T22:21:44.691Z,4.01
2022-11-29T22:24:12.685Z,3.90
2022-11-29T22:26:39.711Z,3.96
2022-11-29T22:29:06.541Z,3.98
2022-11-29T22:31:35.151Z,4.05
2022-11-29T22:34:01.941Z,3.87
2022-11-29T22:36:28.813Z,3.90
2022-11-29T22:38:55.222Z,4.02
2022-11-29T22:41:22.029Z,3.98
2022-11-29T22:43:48.365Z,3.83
2022-11-29T22:46:20.713Z,3.87
2022-11-29T22:48:51.253Z,3.73
2022-11-29T22:51:30.429Z,3.66
2022-11-29T22:54:00.132Z,3.69
2022-11-29T22:56:29.227Z,3.67
2022-11-29T22:58:55.895Z,3.59
2022-11-29T23:01:24.880Z,3.80
2022-11-29T23:03:56.570Z,3.71
2022-11-29T23:06:28.404Z,3.72
2022-11-29T23:08:57.417Z,3.64
2022-11-29T23:11:29.366Z,3.75
2022-11-29T23:13:55.912Z,3.64
2022-11-29T23:16:25.182Z,3.58
2022-11-29T23:18:53.401Z,3.51
2022-11-29T23:21:28.308Z,3.57
2022-11-29T23:23:56.830Z,3.72
2022-11-29T23:26:33.828Z,3.59
2022-11-29T23:29:00.559Z,3.57
2022-11-29T23:31:26.989Z,3.69
2022-11-29T23:33:53.358Z,3.73
2022-11-29T23:36:20.212Z,3.73
2022-11-29T23:38:46.999Z,3.92
2022-11-29T23:41:13.541Z,3.78
2022-11-29T23:43:41.974Z,3.77
2022-11-29T23:46:12.512Z,3.69
2022-11-29T23:48:38.959Z,3.48
2022-11-29T23:51:05.837Z,3.40
2022-11-29T23:53:32.444Z,3.37
2022-11-29T23:56:00.525Z,3.30
2022-11-29T23:58:28.207Z,3.37
